Summit Grove, Indiana
Current Conditions -  °F | °C
As of 8:55 PM on Saturday 25 Oct 2014 (Local Time) from KPRG Reporting Station
Clear Clear  
Wind Chill: 60°   Ceiling: Unl
Heat Index: 60°   Visibility: 10mi
Dew Point: 47°   Wind: 6mph
Humidity: 63%   Direction: 290°WNW
Pressure: 29.98"   Gusts: NA
Location:  39.6513°N, 87.4607°W
Report Text: KPRG 260055Z AUTO 29005KT 10SM CLR 15/09 A2998 RMK AO2 T01540085 PWINO
Loading
Personal Weather Stations






























Interactive Weather Map
Tropical Storm Tracking
New forecast layout! Learn more

10-Day Weather Forecast

Advertisements
Track Severe Weather on mobile